createdAt,value
2023-01-30T00:00:11.078Z,7.98
2023-01-30T00:01:19.078Z,8.02
2023-01-30T00:02:11.138Z,8.04
2023-01-30T00:03:11.071Z,8.08
2023-01-30T00:04:11.075Z,8.07
2023-01-30T00:05:11.149Z,8.10
2023-01-30T00:06:11.106Z,8.11
2023-01-30T00:07:11.078Z,8.16
2023-01-30T00:08:11.075Z,8.18
2023-01-30T00:09:13.070Z,8.18
2023-01-30T00:10:11.070Z,8.21
2023-01-30T00:11:12.069Z,8.26
2023-01-30T00:12:11.071Z,8.27
2023-01-30T00:13:11.072Z,8.29
2023-01-30T00:14:11.071Z,8.32
2023-01-30T00:15:11.071Z,8.34
2023-01-30T00:16:11.142Z,8.38
2023-01-30T00:17:11.077Z,8.42
2023-01-30T00:18:11.071Z,8.43
2023-01-30T00:19:11.072Z,8.44
2023-01-30T00:20:11.070Z,8.46
2023-01-30T00:21:11.071Z,8.49
2023-01-30T00:22:11.076Z,8.50
2023-01-30T00:23:11.071Z,8.50
2023-01-30T00:24:11.164Z,8.51
2023-01-30T00:25:11.270Z,8.51
2023-01-30T00:26:11.161Z,8.51
2023-01-30T00:27:11.071Z,8.54
2023-01-30T00:28:11.079Z,8.55
2023-01-30T00:29:11.090Z,8.55
2023-01-30T00:30:11.071Z,8.57
2023-01-30T00:31:11.076Z,8.55
2023-01-30T00:32:11.077Z,8.55
2023-01-30T00:33:11.082Z,8.59
2023-01-30T00:34:11.073Z,8.59
2023-01-30T00:35:11.071Z,8.61
2023-01-30T00:36:11.119Z,8.65
2023-01-30T00:37:11.080Z,8.67
2023-01-30T00:38:11.070Z,8.68
2023-01-30T00:39:11.080Z,8.68
2023-01-30T00:40:11.094Z,8.70
2023-01-30T00:41:11.072Z,8.71
2023-01-30T00:42:15.074Z,8.72
2023-01-30T00:43:15.108Z,8.74
2023-01-30T00:44:15.087Z,8.74
2023-01-30T00:45:15.079Z,8.77
2023-01-30T00:46:25.098Z,8.78
2023-01-30T00:47:11.077Z,8.78
2023-01-30T00:48:11.083Z,8.79
2023-01-30T00:49:11.077Z,8.78
2023-01-30T00:50:11.078Z,8.78
2023-01-30T00:51:11.084Z,8.78
2023-01-30T00:52:11.073Z,8.78
2023-01-30T00:53:11.084Z,8.80
2023-01-30T00:54:11.082Z,8.83
2023-01-30T00:55:11.078Z,8.82
2023-01-30T00:56:11.078Z,8.80
2023-01-30T00:57:11.083Z,8.78
2023-01-30T00:58:11.074Z,8.76
2023-01-30T00:59:11.074Z,8.73
2023-01-30T01:00:11.064Z,8.70
2023-01-30T01:01:11.065Z,8.68
2023-01-30T01:02:11.114Z,8.68
2023-01-30T01:03:11.099Z,8.67
2023-01-30T01:04:11.070Z,8.66
2023-01-30T01:05:11.068Z,8.62
2023-01-30T01:06:11.062Z,8.58
2023-01-30T01:07:11.063Z,8.59
2023-01-30T01:08:11.064Z,8.56
2023-01-30T01:09:11.060Z,8.58
2023-01-30T01:10:11.063Z,8.59
2023-01-30T01:11:11.063Z,8.58
2023-01-30T01:12:11.065Z,8.58
2023-01-30T01:13:14.063Z,8.59
2023-01-30T01:14:11.071Z,8.59
2023-01-30T01:15:11.080Z,8.52
2023-01-30T01:16:11.100Z,8.51
2023-01-30T01:17:11.095Z,8.53
2023-01-30T01:18:11.065Z,8.49
2023-01-30T01:19:11.069Z,8.51
2023-01-30T01:20:11.060Z,8.48
2023-01-30T01:21:11.066Z,8.47
2023-01-30T01:22:11.083Z,8.45
2023-01-30T01:23:11.063Z,8.47
2023-01-30T01:24:13.067Z,8.49
2023-01-30T01:25:11.068Z,8.46
2023-01-30T01:26:11.099Z,8.44
2023-01-30T01:27:11.061Z,8.47
2023-01-30T01:28:11.063Z,8.38
2023-01-30T01:29:13.064Z,8.38
2023-01-30T01:30:11.078Z,8.38
2023-01-30T01:31:13.193Z,8.37
2023-01-30T01:32:11.136Z,8.33
2023-01-30T01:33:11.111Z,8.34
2023-01-30T01:34:11.071Z,8.39
2023-01-30T01:35:11.073Z,8.39
2023-01-30T01:36:12.297Z,8.36
2023-01-30T01:37:11.065Z,8.37
2023-01-30T01:38:11.073Z,8.37
2023-01-30T01:39:11.063Z,8.38
2023-01-30T01:40:19.073Z,8.37
2023-01-30T01:41:11.065Z,8.34
2023-01-30T01:42:11.470Z,8.34
2023-01-30T01:43:19.064Z,8.38
2023-01-30T01:44:11.075Z,8.35
2023-01-30T01:45:21.218Z,8.34
2023-01-30T01:46:21.067Z,8.32
2023-01-30T01:47:11.073Z,8.35
2023-01-30T01:48:19.070Z,8.35
2023-01-30T01:49:21.081Z,8.36
2023-01-30T01:50:16.082Z,8.40
2023-01-30T01:51:19.063Z,8.40
2023-01-30T01:52:15.075Z,8.41
2023-01-30T01:53:11.075Z,8.42
2023-01-30T01:54:16.070Z,8.44
2023-01-30T01:55:11.067Z,8.45
2023-01-30T01:56:11.065Z,8.48
2023-01-30T01:57:15.067Z,8.48
2023-01-30T01:58:16.065Z,8.50
2023-01-30T01:59:18.066Z,8.51
2023-01-30T02:00:13.070Z,8.45
2023-01-30T02:01:11.107Z,8.40
2023-01-30T02:02:12.090Z,8.41
2023-01-30T02:03:14.068Z,8.44
2023-01-30T02:04:12.069Z,8.44
2023-01-30T02:05:11.086Z,8.43
2023-01-30T02:06:11.075Z,8.46
2023-01-30T02:07:11.066Z,8.47
2023-01-30T02:08:15.063Z,8.47
2023-01-30T02:09:11.066Z,8.43
2023-01-30T02:10:13.107Z,8.44
2023-01-30T02:11:16.064Z,8.43
2023-01-30T02:12:11.073Z,8.41
2023-01-30T02:13:11.074Z,8.43
2023-01-30T02:14:11.066Z,8.45
2023-01-30T02:15:11.070Z,8.41
2023-01-30T02:16:11.075Z,8.37
2023-01-30T02:17:11.094Z,8.40
2023-01-30T02:18:11.075Z,8.38
2023-01-30T02:19:19.081Z,8.36
2023-01-30T02:20:19.078Z,8.36
2023-01-30T02:21:19.065Z,8.34
2023-01-30T02:22:19.064Z,8.33
2023-01-30T02:23:19.076Z,8.34
2023-01-30T02:24:19.075Z,8.30
2023-01-30T02:25:21.280Z,8.34
2023-01-30T02:26:19.113Z,8.35
2023-01-30T02:27:19.063Z,8.33
2023-01-30T02:28:21.067Z,8.30
2023-01-30T02:29:21.076Z,8.32
2023-01-30T02:30:21.129Z,8.29
2023-01-30T02:31:19.254Z,8.23
2023-01-30T02:32:19.067Z,8.19
2023-01-30T02:33:21.064Z,8.21
2023-01-30T02:34:19.069Z,8.23
2023-01-30T02:35:21.074Z,8.30
2023-01-30T02:36:19.103Z,8.31
2023-01-30T02:37:21.076Z,8.29
2023-01-30T02:38:21.073Z,8.30
2023-01-30T02:39:21.082Z,8.33
2023-01-30T02:40:19.070Z,8.26
2023-01-30T02:41:19.078Z,8.29
2023-01-30T02:42:19.069Z,8.29
2023-01-30T02:43:21.074Z,8.17
2023-01-30T02:44:21.067Z,8.15
2023-01-30T02:45:21.257Z,8.15
2023-01-30T02:46:21.148Z,8.13
2023-01-30T02:47:17.079Z,8.02
2023-01-30T02:48:18.073Z,8.01
2023-01-30T02:49:20.070Z,8.00
2023-01-30T02:50:18.072Z,7.99
2023-01-30T02:51:21.078Z,7.98
2023-01-30T02:52:12.087Z,7.96
2023-01-30T02:53:11.099Z,7.82
2023-01-30T02:54:12.087Z,7.74
2023-01-30T02:55:19.500Z,7.77
2023-01-30T02:56:11.081Z,7.73
2023-01-30T02:57:21.077Z,7.70
2023-01-30T02:58:11.093Z,7.70
2023-01-30T02:59:11.082Z,7.65
2023-01-30T03:00:11.098Z,7.67
2023-01-30T03:01:19.119Z,7.65
2023-01-30T03:02:19.097Z,7.65
2023-01-30T03:03:21.072Z,7.66
2023-01-30T03:04:19.073Z,7.65
2023-01-30T03:05:19.488Z,7.62
2023-01-30T03:06:23.069Z,7.64
2023-01-30T03:07:23.073Z,7.64
2023-01-30T03:08:21.073Z,7.60
2023-01-30T03:09:18.080Z,7.62
2023-01-30T03:10:19.079Z,7.60
2023-01-30T03:11:11.069Z,7.53
2023-01-30T03:12:17.082Z,7.54
2023-01-30T03:13:20.085Z,7.52
2023-01-30T03:14:18.077Z,7.51
2023-01-30T03:15:21.071Z,7.55
2023-01-30T03:16:18.092Z,7.56
2023-01-30T03:17:11.076Z,7.54
2023-01-30T03:18:11.085Z,7.53
2023-01-30T03:19:13.095Z,7.50
2023-01-30T03:20:11.070Z,7.51
2023-01-30T03:21:11.072Z,7.52
2023-01-30T03:22:11.071Z,7.52
2023-01-30T03:23:11.069Z,7.43
2023-01-30T03:24:11.076Z,7.38
2023-01-30T03:25:13.072Z,7.41
2023-01-30T03:26:14.101Z,7.34
2023-01-30T03:27:12.080Z,7.28
2023-01-30T03:28:11.082Z,7.31
2023-01-30T03:29:11.071Z,7.29
2023-01-30T03:30:11.078Z,7.29
2023-01-30T03:31:11.160Z,7.23
2023-01-30T03:32:11.070Z,7.27
2023-01-30T03:33:11.085Z,7.26
2023-01-30T03:34:11.079Z,7.24
2023-01-30T03:35:11.071Z,7.19
2023-01-30T03:36:11.073Z,7.19
2023-01-30T03:37:11.082Z,7.14
2023-01-30T03:38:11.071Z,7.16
2023-01-30T03:39:11.077Z,7.17
2023-01-30T03:40:11.080Z,7.09
2023-01-30T03:41:11.088Z,7.10
2023-01-30T03:42:11.078Z,7.08
2023-01-30T03:43:11.081Z,7.09
2023-01-30T03:44:11.073Z,7.05
2023-01-30T03:45:11.079Z,7.01
2023-01-30T03:46:11.133Z,6.95
2023-01-30T03:47:11.073Z,6.92
2023-01-30T03:48:11.076Z,6.95
2023-01-30T03:49:11.081Z,6.94
2023-01-30T03:50:11.072Z,6.88
2023-01-30T03:51:11.083Z,6.89
2023-01-30T03:52:11.085Z,6.89
2023-01-30T03:53:11.072Z,6.90
2023-01-30T03:54:11.076Z,6.88
2023-01-30T03:55:11.087Z,6.87
2023-01-30T03:56:11.092Z,6.86
2023-01-30T03:57:11.079Z,6.80
2023-01-30T03:58:11.093Z,6.80
2023-01-30T03:59:11.075Z,6.75
2023-01-30T04:00:11.063Z,6.75
2023-01-30T04:01:11.081Z,6.75
2023-01-30T04:02:11.103Z,6.74
2023-01-30T04:03:11.071Z,6.66
2023-01-30T04:04:11.062Z,6.66
2023-01-30T04:05:11.067Z,6.66
2023-01-30T04:06:11.058Z,6.64
2023-01-30T04:07:11.075Z,6.53
2023-01-30T04:08:11.060Z,6.49
2023-01-30T04:09:11.062Z,6.53
2023-01-30T04:10:11.066Z,6.53
2023-01-30T04:11:11.062Z,6.53
2023-01-30T04:12:11.071Z,6.50
2023-01-30T04:13:11.063Z,6.53
2023-01-30T04:14:11.066Z,6.51
2023-01-30T04:15:11.060Z,6.49
2023-01-30T04:16:15.066Z,6.50
2023-01-30T04:17:11.070Z,6.44
2023-01-30T04:18:11.066Z,6.42
2023-01-30T04:19:11.062Z,6.42
2023-01-30T04:20:11.068Z,6.41
2023-01-30T04:21:11.063Z,6.39
2023-01-30T04:22:11.062Z,6.37
2023-01-30T04:23:11.070Z,6.39
2023-01-30T04:24:11.061Z,6.35
2023-01-30T04:25:11.064Z,6.32
2023-01-30T04:26:11.103Z,6.33
2023-01-30T04:27:11.062Z,6.29
2023-01-30T04:28:11.064Z,6.27
2023-01-30T04:29:11.070Z,6.26
2023-01-30T04:30:11.064Z,6.25
2023-01-30T04:31:11.081Z,6.25
2023-01-30T04:32:11.070Z,6.21
2023-01-30T04:33:11.069Z,6.23
2023-01-30T04:34:11.060Z,6.24
2023-01-30T04:35:11.069Z,6.22
2023-01-30T04:36:11.076Z,6.19
2023-01-30T04:37:11.061Z,6.18
2023-01-30T04:38:11.061Z,6.17
2023-01-30T04:39:11.065Z,6.17
2023-01-30T04:40:11.061Z,6.12
2023-01-30T04:41:11.065Z,6.11
2023-01-30T04:42:11.064Z,6.08
2023-01-30T04:43:11.063Z,6.05
2023-01-30T04:44:11.068Z,6.04
2023-01-30T04:45:11.066Z,6.01
2023-01-30T04:46:11.063Z,5.98
2023-01-30T04:47:11.122Z,5.98
2023-01-30T04:48:11.071Z,5.95
2023-01-30T04:49:11.065Z,5.97
2023-01-30T04:50:11.073Z,5.96
2023-01-30T04:51:11.071Z,5.95
2023-01-30T04:52:11.063Z,5.91
2023-01-30T04:53:11.061Z,5.89
2023-01-30T04:54:11.071Z,5.86
2023-01-30T04:55:11.066Z,5.85
2023-01-30T04:56:11.061Z,5.84
2023-01-30T04:57:11.069Z,5.84
2023-01-30T04:58:11.065Z,5.79
2023-01-30T04:59:11.064Z,5.79
2023-01-30T05:00:11.065Z,5.77
2023-01-30T05:01:19.067Z,5.75
2023-01-30T05:02:11.123Z,5.72
2023-01-30T05:03:11.067Z,5.73
2023-01-30T05:04:11.072Z,5.73
2023-01-30T05:05:11.066Z,5.67
2023-01-30T05:06:11.065Z,5.66
2023-01-30T05:07:11.067Z,5.63
2023-01-30T05:08:11.066Z,5.65
2023-01-30T05:09:11.062Z,5.62
2023-01-30T05:10:11.068Z,5.60
2023-01-30T05:11:11.067Z,5.58
2023-01-30T05:12:11.061Z,5.54
2023-01-30T05:13:11.070Z,5.53
2023-01-30T05:14:11.077Z,5.52
2023-01-30T05:15:11.082Z,5.52
2023-01-30T05:16:14.073Z,5.53
2023-01-30T05:17:11.081Z,5.54
2023-01-30T05:18:11.068Z,5.53
2023-01-30T05:19:12.068Z,5.53
2023-01-30T05:20:14.066Z,5.53
2023-01-30T05:21:14.100Z,5.53
2023-01-30T05:22:11.066Z,5.53
2023-01-30T05:23:11.081Z,5.52
2023-01-30T05:24:11.063Z,5.50
2023-01-30T05:25:11.068Z,5.48
2023-01-30T05:26:11.109Z,5.48
2023-01-30T05:27:11.065Z,5.47
2023-01-30T05:28:11.070Z,5.48
2023-01-30T05:29:11.073Z,5.42
2023-01-30T05:30:11.072Z,5.43
2023-01-30T05:31:11.143Z,5.42
2023-01-30T05:32:14.073Z,5.43
2023-01-30T05:33:11.067Z,5.45
2023-01-30T05:34:12.066Z,5.44
2023-01-30T05:35:11.073Z,5.44
2023-01-30T05:36:14.077Z,5.42
2023-01-30T05:37:11.066Z,5.41
2023-01-30T05:38:11.065Z,5.39
2023-01-30T05:39:11.067Z,5.39
2023-01-30T05:40:11.064Z,5.37
2023-01-30T05:41:11.065Z,5.38
2023-01-30T05:42:11.075Z,5.40
2023-01-30T05:43:11.064Z,5.36
2023-01-30T05:44:11.805Z,5.38
2023-01-30T05:45:11.077Z,5.40
2023-01-30T05:46:11.064Z,5.40
2023-01-30T05:47:11.067Z,5.39
2023-01-30T05:48:11.076Z,5.35
2023-01-30T05:49:11.069Z,5.37
2023-01-30T05:50:11.064Z,5.37
2023-01-30T05:51:15.070Z,5.37
2023-01-30T05:52:11.070Z,5.35
2023-01-30T05:53:11.065Z,5.35
2023-01-30T05:54:11.080Z,5.34
2023-01-30T05:55:11.082Z,5.34
2023-01-30T05:56:11.065Z,5.37
2023-01-30T05:57:11.066Z,5.34
2023-01-30T05:58:11.079Z,5.34
2023-01-30T05:59:12.067Z,5.35
2023-01-30T06:00:11.067Z,5.32
2023-01-30T06:01:12.068Z,5.28
2023-01-30T06:02:11.926Z,5.28
2023-01-30T06:03:11.068Z,5.26
2023-01-30T06:04:11.182Z,5.25
2023-01-30T06:05:11.072Z,5.25
2023-01-30T06:06:11.075Z,5.22
2023-01-30T06:07:11.077Z,5.21
2023-01-30T06:08:11.075Z,5.20
2023-01-30T06:09:12.077Z,5.21
2023-01-30T06:10:11.074Z,5.22
2023-01-30T06:11:11.069Z,5.21
2023-01-30T06:12:11.065Z,5.23
2023-01-30T06:13:11.170Z,5.23
2023-01-30T06:14:11.109Z,5.24
2023-01-30T06:15:11.071Z,5.22
2023-01-30T06:16:14.232Z,5.22
2023-01-30T06:17:11.135Z,5.19
2023-01-30T06:18:11.082Z,5.20
2023-01-30T06:19:11.069Z,5.16
2023-01-30T06:20:11.084Z,5.16
2023-01-30T06:21:11.071Z,5.17
2023-01-30T06:22:11.096Z,5.17
2023-01-30T06:23:11.077Z,5.16
2023-01-30T06:24:11.078Z,5.15
2023-01-30T06:25:11.072Z,5.15
2023-01-30T06:26:11.183Z,5.13
2023-01-30T06:27:11.071Z,5.12
2023-01-30T06:28:11.073Z,5.12
2023-01-30T06:29:11.071Z,5.14
2023-01-30T06:30:11.072Z,5.13
2023-01-30T06:31:11.143Z,5.12
2023-01-30T06:32:11.069Z,5.13
2023-01-30T06:33:11.072Z,5.10
2023-01-30T06:34:11.070Z,5.12
2023-01-30T06:35:11.072Z,5.13
2023-01-30T06:36:11.072Z,5.13
2023-01-30T06:37:11.068Z,5.11
2023-01-30T06:38:11.073Z,5.10
2023-01-30T06:39:11.079Z,5.10
2023-01-30T06:40:11.071Z,5.09
2023-01-30T06:41:11.072Z,5.09
2023-01-30T06:42:11.078Z,5.10
2023-01-30T06:43:11.067Z,5.08
2023-01-30T06:44:11.075Z,5.12
2023-01-30T06:45:11.079Z,5.12
2023-01-30T06:46:11.142Z,5.14
2023-01-30T06:47:11.075Z,5.16
2023-01-30T06:48:11.081Z,5.19
2023-01-30T06:49:11.071Z,5.21
2023-01-30T06:50:11.074Z,5.21
2023-01-30T06:51:11.081Z,5.21
2023-01-30T06:52:11.078Z,5.22
2023-01-30T06:53:11.069Z,5.23
2023-01-30T06:54:11.074Z,5.25
2023-01-30T06:55:11.072Z,5.25
2023-01-30T06:56:11.070Z,5.23
2023-01-30T06:57:11.074Z,5.29
2023-01-30T06:58:13.092Z,5.33
2023-01-30T06:59:11.072Z,5.34
2023-01-30T07:00:12.064Z,5.37
2023-01-30T07:01:11.064Z,5.42
2023-01-30T07:02:12.079Z,5.48
2023-01-30T07:03:15.078Z,5.50
2023-01-30T07:04:11.085Z,5.53
2023-01-30T07:05:11.076Z,5.56
2023-01-30T07:06:11.062Z,5.58
2023-01-30T07:07:11.066Z,5.60
2023-01-30T07:08:11.062Z,5.64
2023-01-30T07:09:11.061Z,5.64
2023-01-30T07:10:11.061Z,5.70
2023-01-30T07:11:11.064Z,5.72
2023-01-30T07:12:11.059Z,5.73
2023-01-30T07:13:11.061Z,5.76
2023-01-30T07:14:11.065Z,5.79
2023-01-30T07:15:11.075Z,5.82
2023-01-30T07:16:11.073Z,5.82
2023-01-30T07:17:11.071Z,5.86
2023-01-30T07:18:11.091Z,5.87
2023-01-30T07:19:11.071Z,5.89
2023-01-30T07:20:11.075Z,5.88
2023-01-30T07:21:11.062Z,5.87
2023-01-30T07:22:11.066Z,5.89
2023-01-30T07:23:11.076Z,5.90
2023-01-30T07:24:11.070Z,5.89
2023-01-30T07:25:11.091Z,5.83
2023-01-30T07:26:11.100Z,5.79
2023-01-30T07:27:13.070Z,5.77
2023-01-30T07:28:11.061Z,5.76
2023-01-30T07:29:11.084Z,5.71
2023-01-30T07:30:11.077Z,5.71
2023-01-30T07:31:11.062Z,5.70
2023-01-30T07:32:15.077Z,5.71
2023-01-30T07:33:11.076Z,5.70
2023-01-30T07:34:11.062Z,5.73
2023-01-30T07:35:11.063Z,5.73
2023-01-30T07:36:11.072Z,5.71
2023-01-30T07:37:11.065Z,5.67
2023-01-30T07:38:11.063Z,5.65
2023-01-30T07:39:11.073Z,5.64
2023-01-30T07:40:11.063Z,5.66
2023-01-30T07:41:11.066Z,5.62
2023-01-30T07:42:11.083Z,5.63
2023-01-30T07:43:11.078Z,5.66
2023-01-30T07:44:11.061Z,5.69
2023-01-30T07:45:11.072Z,5.72
2023-01-30T07:46:11.065Z,5.70
2023-01-30T07:47:11.102Z,5.75
2023-01-30T07:48:11.068Z,5.74
2023-01-30T07:49:11.069Z,5.77
2023-01-30T07:50:11.065Z,5.74
2023-01-30T07:51:11.065Z,5.75
2023-01-30T07:52:11.070Z,5.78
2023-01-30T07:53:11.066Z,5.78
2023-01-30T07:54:11.065Z,5.80
2023-01-30T07:55:11.068Z,5.83
2023-01-30T07:56:11.064Z,5.84
2023-01-30T07:57:11.067Z,5.81
2023-01-30T07:58:13.070Z,5.86
2023-01-30T07:59:13.064Z,5.87
2023-01-30T08:00:13.067Z,5.93
2023-01-30T08:01:11.115Z,5.96
2023-01-30T08:02:13.068Z,5.96
2023-01-30T08:03:15.089Z,5.96
2023-01-30T08:04:11.071Z,6.00
2023-01-30T08:05:11.070Z,5.97
2023-01-30T08:06:11.063Z,5.95
2023-01-30T08:07:11.068Z,5.98
2023-01-30T08:08:11.077Z,5.99
2023-01-30T08:09:11.067Z,5.99
2023-01-30T08:10:12.172Z,6.00
2023-01-30T08:11:11.070Z,6.02
2023-01-30T08:12:11.070Z,6.01
2023-01-30T08:13:11.066Z,5.98
2023-01-30T08:14:11.088Z,6.00
2023-01-30T08:15:11.099Z,6.02
2023-01-30T08:16:11.080Z,5.97
2023-01-30T08:17:11.082Z,6.01
2023-01-30T08:18:11.071Z,6.03
2023-01-30T08:19:11.072Z,6.05
2023-01-30T08:20:11.086Z,6.07
2023-01-30T08:21:11.068Z,6.06
2023-01-30T08:22:11.066Z,6.07
2023-01-30T08:23:11.070Z,6.06
2023-01-30T08:24:11.070Z,6.04
2023-01-30T08:25:11.077Z,6.02
2023-01-30T08:26:11.127Z,6.05
2023-01-30T08:27:11.068Z,6.05
2023-01-30T08:28:11.066Z,6.06
2023-01-30T08:29:11.075Z,6.08
2023-01-30T08:30:11.071Z,6.05
2023-01-30T08:31:13.305Z,6.01
2023-01-30T08:32:11.071Z,6.05
2023-01-30T08:33:11.069Z,6.05
2023-01-30T08:34:11.068Z,6.05
2023-01-30T08:35:11.068Z,6.07
2023-01-30T08:36:11.072Z,6.07
2023-01-30T08:37:11.069Z,6.10
2023-01-30T08:38:11.069Z,6.10
2023-01-30T08:39:11.071Z,6.13
2023-01-30T08:40:11.066Z,6.12
2023-01-30T08:41:11.082Z,6.14
2023-01-30T08:42:11.071Z,6.15
2023-01-30T08:43:11.078Z,6.15
2023-01-30T08:44:11.081Z,6.15
2023-01-30T08:45:11.076Z,6.15
2023-01-30T08:46:11.103Z,6.14
2023-01-30T08:47:11.076Z,6.15
2023-01-30T08:48:11.079Z,6.16
2023-01-30T08:49:11.077Z,6.18
2023-01-30T08:50:11.078Z,6.19
2023-01-30T08:51:11.076Z,6.23
2023-01-30T08:52:11.072Z,6.26
2023-01-30T08:53:11.066Z,6.24
2023-01-30T08:54:13.079Z,6.24
2023-01-30T08:55:11.078Z,6.25
2023-01-30T08:56:11.088Z,6.23
2023-01-30T08:57:11.074Z,6.23
2023-01-30T08:58:11.072Z,6.27
2023-01-30T08:59:11.068Z,6.26
2023-01-30T09:00:11.080Z,6.28
2023-01-30T09:01:11.115Z,6.27
2023-01-30T09:02:13.106Z,6.27
2023-01-30T09:03:11.069Z,6.26
2023-01-30T09:04:11.080Z,6.25
2023-01-30T09:05:11.089Z,6.26
2023-01-30T09:06:11.070Z,6.24
2023-01-30T09:07:11.083Z,6.27
2023-01-30T09:08:11.071Z,6.29
2023-01-30T09:09:11.069Z,6.32
2023-01-30T09:10:11.079Z,6.34
2023-01-30T09:11:11.071Z,6.36
2023-01-30T09:12:11.076Z,6.34
2023-01-30T09:13:11.077Z,6.33
2023-01-30T09:14:11.069Z,6.36
2023-01-30T09:15:11.078Z,6.34
2023-01-30T09:16:11.120Z,6.36
2023-01-30T09:17:11.092Z,6.37
2023-01-30T09:18:11.105Z,6.40
2023-01-30T09:19:11.080Z,6.44
2023-01-30T09:20:11.082Z,6.48
2023-01-30T09:21:11.075Z,6.47
2023-01-30T09:22:11.080Z,6.49
2023-01-30T09:23:11.102Z,6.49
2023-01-30T09:24:11.074Z,6.44
2023-01-30T09:25:11.072Z,6.44
2023-01-30T09:26:11.122Z,6.47
2023-01-30T09:27:11.076Z,6.46
2023-01-30T09:28:11.071Z,6.50
2023-01-30T09:29:13.073Z,6.51
2023-01-30T09:30:11.070Z,6.51
2023-01-30T09:31:11.211Z,6.50
2023-01-30T09:32:11.086Z,6.48
2023-01-30T09:33:11.070Z,6.48
2023-01-30T09:34:11.067Z,6.46
2023-01-30T09:35:11.083Z,6.47
2023-01-30T09:36:11.079Z,6.47
2023-01-30T09:37:11.071Z,6.44
2023-01-30T09:38:11.091Z,6.43
2023-01-30T09:39:11.084Z,6.42
2023-01-30T09:40:18.554Z,6.41
2023-01-30T09:41:19.072Z,6.45
2023-01-30T09:42:22.100Z,6.43
2023-01-30T09:43:22.073Z,6.49
2023-01-30T09:44:19.073Z,6.55
2023-01-30T09:45:19.067Z,6.63
2023-01-30T09:46:22.112Z,6.63
2023-01-30T09:47:18.093Z,6.72
2023-01-30T09:48:19.676Z,6.76
2023-01-30T09:49:19.072Z,6.86
2023-01-30T09:50:19.489Z,6.99
2023-01-30T09:51:19.073Z,7.09
2023-01-30T09:52:25.080Z,7.17
2023-01-30T09:53:19.073Z,7.28
2023-01-30T09:54:15.096Z,7.40
2023-01-30T09:55:19.091Z,7.52
2023-01-30T09:56:11.072Z,7.66
2023-01-30T09:57:20.324Z,7.76
2023-01-30T09:58:19.072Z,7.79
2023-01-30T09:59:19.071Z,7.72
2023-01-30T10:00:19.386Z,7.69
2023-01-30T10:01:17.063Z,7.71
2023-01-30T10:02:22.070Z,7.63
2023-01-30T10:03:19.163Z,7.47
2023-01-30T10:04:21.087Z,7.48
2023-01-30T10:05:11.130Z,7.42
2023-01-30T10:06:15.060Z,7.35
2023-01-30T10:07:19.061Z,7.33
2023-01-30T10:08:22.062Z,7.24
2023-01-30T10:09:19.058Z,7.21
2023-01-30T10:10:22.065Z,7.19
2023-01-30T10:11:22.078Z,7.16
2023-01-30T10:12:19.080Z,7.14
2023-01-30T10:13:19.062Z,7.08
2023-01-30T10:14:19.060Z,7.04
2023-01-30T10:15:22.067Z,7.03
2023-01-30T10:16:22.091Z,7.03
2023-01-30T10:17:22.075Z,7.04
2023-01-30T10:18:22.070Z,7.02
2023-01-30T10:19:34.767Z,7.02
2023-01-30T10:20:22.093Z,7.04
2023-01-30T10:21:22.058Z,7.01
2023-01-30T10:22:19.072Z,7.00
2023-01-30T10:23:22.081Z,6.93
2023-01-30T10:24:19.097Z,6.92
2023-01-30T10:25:19.067Z,6.89
2023-01-30T10:26:12.095Z,6.89
2023-01-30T10:27:17.075Z,6.86
2023-01-30T10:28:22.063Z,6.88
2023-01-30T10:29:22.142Z,6.88
2023-01-30T10:30:15.058Z,6.90
2023-01-30T10:31:15.150Z,6.88
2023-01-30T10:32:20.063Z,6.89
2023-01-30T10:33:22.065Z,6.91
2023-01-30T10:34:22.060Z,6.93
2023-01-30T10:35:16.077Z,6.89
2023-01-30T10:36:19.065Z,6.92
2023-01-30T10:37:18.071Z,6.95
2023-01-30T10:38:19.060Z,7.00
2023-01-30T10:39:19.059Z,6.94
2023-01-30T10:40:19.379Z,6.94
2023-01-30T10:41:19.084Z,6.98
2023-01-30T10:42:18.072Z,6.98
2023-01-30T10:43:19.073Z,7.00
2023-01-30T10:44:14.059Z,6.98
2023-01-30T10:45:18.091Z,7.04
2023-01-30T10:46:19.080Z,7.01
2023-01-30T10:47:19.367Z,7.02
2023-01-30T10:48:19.076Z,7.00
2023-01-30T10:49:22.063Z,7.02
2023-01-30T10:50:16.432Z,7.03
2023-01-30T10:51:19.063Z,7.05
2023-01-30T10:52:19.063Z,7.03
2023-01-30T10:53:17.060Z,7.05
2023-01-30T10:54:20.153Z,7.10
2023-01-30T10:55:28.140Z,7.17
2023-01-30T10:56:20.038Z,7.25
2023-01-30T10:57:19.061Z,7.32
2023-01-30T10:58:19.071Z,7.41
2023-01-30T10:59:19.066Z,7.46
2023-01-30T11:00:25.067Z,7.55
2023-01-30T11:01:18.066Z,7.61
2023-01-30T11:02:19.066Z,7.58
2023-01-30T11:03:19.066Z,7.54
2023-01-30T11:04:19.067Z,7.56
2023-01-30T11:05:22.066Z,7.58
2023-01-30T11:06:19.094Z,7.54
2023-01-30T11:07:11.063Z,7.36
2023-01-30T11:08:22.063Z,7.42
2023-01-30T11:09:11.068Z,7.44
2023-01-30T11:10:18.074Z,7.50
2023-01-30T11:11:19.061Z,7.44
2023-01-30T11:12:11.072Z,7.32
2023-01-30T11:13:17.073Z,7.37
2023-01-30T11:14:11.075Z,7.41
2023-01-30T11:15:11.066Z,7.41
2023-01-30T11:16:11.122Z,7.41
2023-01-30T11:17:16.064Z,7.36
2023-01-30T11:18:46.813Z,7.24
2023-01-30T11:19:22.191Z,7.34
2023-01-30T11:20:21.556Z,7.29
2023-01-30T11:21:15.066Z,7.32
2023-01-30T11:22:14.063Z,7.14
2023-01-30T11:23:20.730Z,7.17
2023-01-30T11:24:19.077Z,7.21
2023-01-30T11:25:20.563Z,7.29
2023-01-30T11:26:22.105Z,7.31
2023-01-30T11:27:19.102Z,7.27
2023-01-30T11:28:15.071Z,7.30
2023-01-30T11:29:22.067Z,7.26
2023-01-30T11:30:15.087Z,7.24
2023-01-30T11:31:38.849Z,7.28
2023-01-30T11:32:24.111Z,7.26
2023-01-30T11:33:17.068Z,7.24
2023-01-30T11:34:18.113Z,7.28
2023-01-30T11:35:19.071Z,7.33
2023-01-30T11:36:19.067Z,7.47
2023-01-30T11:37:15.098Z,7.51
2023-01-30T11:38:19.075Z,7.57
2023-01-30T11:39:19.067Z,7.62
2023-01-30T11:40:22.413Z,7.76
2023-01-30T11:41:19.074Z,7.83
2023-01-30T11:42:12.075Z,7.86
2023-01-30T11:43:14.067Z,8.06
2023-01-30T11:44:11.075Z,8.17
2023-01-30T11:45:17.880Z,8.28
2023-01-30T11:46:14.156Z,8.36
2023-01-30T11:47:19.076Z,8.45
2023-01-30T11:48:32.975Z,8.58
2023-01-30T11:49:45.856Z,8.69
2023-01-30T11:50:20.691Z,8.77
2023-01-30T11:51:12.075Z,8.86
2023-01-30T11:52:11.072Z,8.87
2023-01-30T11:53:22.079Z,8.89
2023-01-30T11:54:16.068Z,8.89
2023-01-30T11:55:18.068Z,8.96
2023-01-30T11:56:20.075Z,8.94
2023-01-30T11:57:15.072Z,9.10
2023-01-30T11:58:11.068Z,9.08
2023-01-30T11:59:19.094Z,9.00
2023-01-30T12:00:17.520Z,9.10
2023-01-30T12:01:11.086Z,9.20
2023-01-30T12:02:19.129Z,9.27
2023-01-30T12:03:16.121Z,9.28
2023-01-30T12:04:12.102Z,9.19
2023-01-30T12:05:19.086Z,9.14
2023-01-30T12:06:11.067Z,9.03
2023-01-30T12:07:19.074Z,8.96
2023-01-30T12:08:24.742Z,8.85
2023-01-30T12:09:21.053Z,8.77
2023-01-30T12:10:22.071Z,8.77
2023-01-30T12:11:19.074Z,8.65
2023-01-30T12:12:19.073Z,8.68
2023-01-30T12:13:19.077Z,8.79
2023-01-30T12:14:22.068Z,8.83
2023-01-30T12:15:22.073Z,8.89
2023-01-30T12:16:19.159Z,8.81
2023-01-30T12:17:19.073Z,8.75
2023-01-30T12:18:22.078Z,8.67
2023-01-30T12:19:19.071Z,8.70
2023-01-30T12:20:19.524Z,8.69
2023-01-30T12:21:21.070Z,8.63
2023-01-30T12:22:19.074Z,8.65
2023-01-30T12:23:22.074Z,8.66
2023-01-30T12:24:22.084Z,8.70
2023-01-30T12:25:17.082Z,8.69
2023-01-30T12:26:16.091Z,8.50
2023-01-30T12:27:22.072Z,8.57
2023-01-30T12:29:21.071Z,8.67
2023-01-30T12:30:19.447Z,8.63
2023-01-30T12:32:18.052Z,8.38
2023-01-30T12:33:12.080Z,8.40
2023-01-30T12:35:17.509Z,8.39
2023-01-30T12:36:19.080Z,8.35
2023-01-30T12:37:20.071Z,8.34
2023-01-30T12:38:19.072Z,8.34
2023-01-30T12:39:19.077Z,8.27
2023-01-30T12:40:25.070Z,8.29
2023-01-30T12:41:25.075Z,8.32
2023-01-30T12:42:20.194Z,8.39
2023-01-30T12:43:22.079Z,8.43
2023-01-30T12:44:19.081Z,8.44
2023-01-30T12:45:19.475Z,8.49
2023-01-30T12:46:22.115Z,8.53
2023-01-30T12:47:22.095Z,8.54
2023-01-30T12:48:19.087Z,8.54
2023-01-30T12:49:19.074Z,8.54
2023-01-30T12:50:22.075Z,8.47
2023-01-30T12:51:19.078Z,8.48
2023-01-30T12:52:19.074Z,8.51
2023-01-30T12:53:22.089Z,8.47
2023-01-30T12:54:20.351Z,8.46
2023-01-30T12:55:19.099Z,8.52
2023-01-30T12:56:19.080Z,8.53
2023-01-30T12:57:19.076Z,8.56
2023-01-30T12:58:21.074Z,8.58
2023-01-30T12:59:19.083Z,8.62
2023-01-30T13:00:19.575Z,8.64
2023-01-30T13:01:19.129Z,8.70
2023-01-30T13:02:22.117Z,8.71
2023-01-30T13:03:19.074Z,8.73
2023-01-30T13:04:19.065Z,8.70
2023-01-30T13:05:20.058Z,8.73
2023-01-30T13:06:19.068Z,8.72
2023-01-30T13:07:22.067Z,8.77
2023-01-30T13:08:19.075Z,8.75
2023-01-30T13:09:19.060Z,8.71
2023-01-30T13:10:19.409Z,8.62
2023-01-30T13:11:19.073Z,8.59
2023-01-30T13:12:22.065Z,8.50
2023-01-30T13:13:19.075Z,8.59
2023-01-30T13:14:18.063Z,8.62
2023-01-30T13:15:18.060Z,8.67
2023-01-30T13:16:22.082Z,8.76
2023-01-30T13:17:19.067Z,8.80
2023-01-30T13:18:19.077Z,8.66
2023-01-30T13:19:23.110Z,8.76
2023-01-30T13:20:19.306Z,8.75
2023-01-30T13:21:18.065Z,8.76